Time;durP1;ratioP1;P1;durP2;ratioP2;P2;SDS_P1;SDS_P2;PMS_P1;PMS_P2;Temp;Humidity;BMP_temperature;BMP_pressure;BME280_temperature;BME280_humidity;BME280_pressure;Samples;Min_cycle;Max_cycle;Signal;HPM_P1;HPM_P2
2022/03/29 00:01:03;;;;;;;40.33;26.07;;;;;;;7.08;81.32;101636.41;5051546;28;20192;-71
2022/03/29 00:03:28;;;;;;;42.23;25.83;;;;;;;7.09;80.49;101627.13;5051812;28;20178;-72
2022/03/29 00:05:53;;;;;;;39.37;25.10;;;;;;;7.08;79.95;101626.22;5058191;28;20205;-71
2022/03/29 00:08:19;;;;;;;37.27;25.27;;;;;;;7.06;79.93;101620.22;5051623;28;20185;-71
2022/03/29 00:10:45;;;;;;;42.10;25.63;;;;;;;7.07;79.88;101623.59;5050130;28;20192;-72
2022/03/29 00:13:10;;;;;;;42.13;25.10;;;;;;;7.07;79.96;101629.56;5050023;28;21028;-73
2022/03/29 00:15:36;;;;;;;34.93;24.03;;;;;;;7.04;79.01;101619.25;5051283;28;20190;-71
2022/03/29 00:18:02;;;;;;;38.13;24.53;;;;;;;7.04;79.28;101619.25;5051318;28;20204;-71
2022/03/29 00:20:27;;;;;;;42.67;25.17;;;;;;;7.09;78.42;101614.38;5051220;28;20189;-72
2022/03/29 00:22:53;;;;;;;38.40;24.23;;;;;;;7.09;78.69;101612.69;5049581;28;20686;-72
2022/03/29 00:25:18;;;;;;;40.57;24.77;;;;;;;7.06;78.59;101607.47;5049697;28;20200;-71
2022/03/29 00:27:44;;;;;;;40.13;25.23;;;;;;;7.07;79.57;101601.56;5045264;28;20241;-72
2022/03/29 00:30:15;;;;;;;39.00;25.60;;;;;;;7.08;79.41;101595.66;5031439;28;20194;-73
2022/03/29 00:32:41;;;;;;;41.87;25.90;;;;;;;7.06;79.02;101599.84;5031865;28;20174;-72
2022/03/29 00:35:08;;;;;;;41.40;27.30;;;;;;;7.07;80.06;101601.56;5031485;28;20194;-72
2022/03/29 00:37:33;;;;;;;40.13;26.00;;;;;;;7.06;79.39;101594.75;5031755;28;20198;-73
2022/03/29 00:39:59;;;;;;;44.37;27.13;;;;;;;7.08;78.99;101597.34;5042281;28;20936;-72
2022/03/29 00:42:24;;;;;;;46.63;27.30;;;;;;;7.04;78.24;101591.25;5031655;28;20193;-71
2022/03/29 00:44:50;;;;;;;39.80;25.83;;;;;;;7.04;78.32;101588.69;5041640;28;20689;-71
2022/03/29 00:47:15;;;;;;;43.30;24.80;;;;;;;7.06;78.64;101584.56;5049263;28;20710;-71
2022/03/29 00:49:40;;;;;;;39.77;24.70;;;;;;;7.06;78.58;101582.00;5049237;28;20739;-72
2022/03/29 00:52:07;;;;;;;41.17;24.53;;;;;;;7.02;78.80;101575.03;5035160;28;20198;-72
2022/03/29 00:54:34;;;;;;;40.47;24.30;;;;;;;6.99;78.29;101567.25;5050378;28;20217;-71
2022/03/29 00:57:02;;;;;;;40.60;23.63;;;;;;;7.01;79.33;101562.22;5035345;28;20733;-72
2022/03/29 00:59:27;;;;;;;40.40;25.13;;;;;;;7.02;79.15;101569.06;5030632;28;20210;-72
2022/03/29 01:01:53;;;;;;;37.80;23.80;;;;;;;7.05;79.38;101559.88;5047454;28;20725;-72
2022/03/29 01:04:20;;;;;;;44.37;24.43;;;;;;;7.04;79.02;101552.19;5050269;28;20268;-72
2022/03/29 01:06:46;;;;;;;45.33;25.20;;;;;;;7.05;78.56;101552.25;5048699;28;20303;-72
2022/03/29 01:09:11;;;;;;;41.30;24.27;;;;;;;7.05;77.78;101552.25;5030901;28;20210;-71
2022/03/29 01:11:38;;;;;;;40.73;24.70;;;;;;;7.06;78.25;101551.47;5030674;28;20853;-72
2022/03/29 01:14:04;;;;;;;43.70;26.03;;;;;;;7.05;77.98;101543.75;5030506;28;20229;-71
2022/03/29 01:19:20;;;;;;;42.43;26.07;;;;;;;7.05;78.36;101536.97;5031124;28;20239;-73
2022/03/29 01:21:59;;;;;;;42.07;26.50;;;;;;;7.06;79.14;101533.63;5030634;28;20244;-72
2022/03/29 01:24:25;;;;;;;45.40;27.57;;;;;;;7.08;78.68;101537.09;5042336;28;20268;-72
2022/03/29 01:26:52;;;;;;;44.53;26.23;;;;;;;7.06;79.21;101520.91;5032852;28;20206;-72
2022/03/29 01:29:19;;;;;;;42.87;26.30;;;;;;;7.08;78.28;101523.50;5030550;28;20301;-72
2022/03/29 01:31:44;;;;;;;40.20;25.53;;;;;;;7.08;77.77;101510.75;5031358;28;20190;-72
2022/03/29 01:34:10;;;;;;;38.60;23.43;;;;;;;7.08;77.59;101514.19;5030469;28;20220;-72
2022/03/29 01:36:36;;;;;;;40.43;26.10;;;;;;;7.09;77.90;101513.38;5030267;28;20293;-72
2022/03/29 01:39:02;;;;;;;38.73;25.00;;;;;;;7.08;77.53;101510.75;5031577;28;20285;-72
2022/03/29 01:41:28;;;;;;;39.13;25.93;;;;;;;7.09;77.11;101515.06;5031484;28;20193;-72
2022/03/29 01:43:53;;;;;;;39.30;24.30;;;;;;;7.09;78.11;101510.84;5048512;28;20269;-72
2022/03/29 01:46:18;;;;;;;40.80;25.80;;;;;;;7.09;78.26;101509.97;5031020;28;20214;-71
2022/03/29 01:48:44;;;;;;;42.30;25.90;;;;;;;7.08;77.85;101511.66;5054489;28;20195;-73
2022/03/29 01:51:12;;;;;;;36.70;24.20;;;;;;;7.08;77.29;101508.22;5053188;28;20193;-71
2022/03/29 01:53:38;;;;;;;35.60;21.77;;;;;;;7.09;77.03;101504.91;5030231;28;20218;-71
2022/03/29 01:56:03;;;;;;;32.93;20.87;;;;;;;7.11;76.81;101503.28;5012499;28;20213;-72
2022/03/29 01:58:31;;;;;;;36.77;21.77;;;;;;;7.10;77.04;101511.72;5029807;28;20763;-72
2022/03/29 02:00:57;;;;;;;35.87;21.17;;;;;;;7.08;75.83;101498.91;5028721;28;20220;-72
2022/03/29 02:03:22;;;;;;;31.53;21.27;;;;;;;7.10;76.94;101502.38;5049019;28;20212;-72
2022/03/29 02:05:48;;;;;;;34.90;22.50;;;;;;;7.12;77.87;101507.56;5049600;28;20210;-73
2022/03/29 02:08:14;;;;;;;36.90;23.23;;;;;;;7.09;78.05;101500.66;5029221;28;20198;-72
2022/03/29 02:10:40;;;;;;;35.33;22.13;;;;;;;7.08;77.74;101500.56;5029808;28;20401;-72
2022/03/29 02:13:09;;;;;;;33.67;21.13;;;;;;;7.10;77.63;101499.84;5047594;28;20240;-72
2022/03/29 02:15:34;;;;;;;37.43;22.67;;;;;;;7.11;77.51;101496.50;5049546;28;20224;-72
2022/03/29 02:17:59;;;;;;;37.00;20.70;;;;;;;7.11;77.60;101493.97;5048259;28;20235;-72
2022/03/29 02:20:26;;;;;;;34.67;20.77;;;;;;;7.10;77.72;101489.66;5035769;28;20194;-72
2022/03/29 02:22:51;;;;;;;34.50;20.27;;;;;;;7.10;77.22;101484.56;5028445;28;20187;-72
2022/03/29 02:25:16;;;;;;;33.17;21.40;;;;;;;7.12;77.94;101489.72;5043262;28;20200;-73
2022/03/29 02:27:43;;;;;;;33.90;20.63;;;;;;;7.10;78.41;101487.09;5049660;28;20209;-71
2022/03/29 02:30:14;;;;;;;38.53;21.93;;;;;;;7.11;78.15;101485.44;5038502;28;20205;-73
2022/03/29 02:32:40;;;;;;;36.40;21.30;;;;;;;7.10;77.61;101481.16;5033405;28;20597;-72
2022/03/29 02:35:07;;;;;;;30.60;19.60;;;;;;;7.10;77.55;101479.47;5040852;28;20189;-71
2022/03/29 02:37:32;;;;;;;31.30;18.77;;;;;;;7.09;77.65;101482.81;5048108;28;20686;-71
2022/03/29 02:39:57;;;;;;;33.13;20.17;;;;;;;7.11;77.80;101475.25;5049193;28;20192;-73
2022/03/29 02:42:23;;;;;;;35.07;21.93;;;;;;;7.10;78.91;101479.47;5048184;28;20220;-72
2022/03/29 02:44:48;;;;;;;34.67;22.03;;;;;;;7.12;78.88;101482.97;5040858;28;20178;-72
2022/03/29 02:47:13;;;;;;;34.67;21.70;;;;;;;7.12;79.85;101475.34;5033825;28;20193;-73
2022/03/29 02:49:39;;;;;;;38.60;22.73;;;;;;;7.10;80.75;101466.75;5041103;28;20189;-71
2022/03/29 02:52:05;;;;;;;34.90;22.47;;;;;;;7.12;80.26;101467.69;5029434;28;20182;-72
2022/03/29 02:54:30;;;;;;;31.83;20.23;;;;;;;7.09;79.41;101469.25;5039838;28;20577;-72
2022/03/29 02:56:56;;;;;;;33.43;20.37;;;;;;;7.09;78.67;101464.16;5055344;28;20251;-73
2022/03/29 02:59:21;;;;;;;32.57;18.17;;;;;;;7.08;78.17;101468.38;5042314;28;20202;-71
2022/03/29 03:01:47;;;;;;;31.83;17.10;;;;;;;7.10;77.65;101465.88;5031929;28;20231;-72
2022/03/29 03:04:15;;;;;;;31.33;17.57;;;;;;;7.11;77.76;101459.97;5047755;28;20190;-72
2022/03/29 03:06:41;;;;;;;29.27;15.73;;;;;;;7.10;77.22;101459.09;5047762;28;20311;-72
2022/03/29 03:09:07;;;;;;;29.57;16.67;;;;;;;7.11;77.38;101459.97;5049212;28;20186;-72
2022/03/29 03:11:33;;;;;;;28.07;15.13;;;;;;;7.12;76.75;101457.50;5048869;28;20832;-72
2022/03/29 03:13:58;;;;;;;24.10;14.70;;;;;;;7.13;77.32;101464.34;5051956;28;20209;-72
2022/03/29 03:16:23;;;;;;;25.67;14.77;;;;;;;7.14;77.96;101462.69;5052976;28;20801;-72
2022/03/29 03:18:49;;;;;;;26.00;17.40;;;;;;;7.14;78.51;101466.06;5052569;28;20208;-72
2022/03/29 03:21:14;;;;;;;31.37;19.47;;;;;;;7.15;79.75;101465.28;5052335;28;20186;-72
2022/03/29 03:23:39;;;;;;;32.37;19.50;;;;;;;7.16;79.36;101461.94;5052788;28;20581;-72
2022/03/29 03:26:05;;;;;;;32.63;22.03;;;;;;;7.12;80.14;101462.59;5052231;28;20369;-73
2022/03/29 03:28:31;;;;;;;33.50;21.33;;;;;;;7.13;80.18;101464.34;5051869;28;20194;-73
2022/03/29 03:30:56;;;;;;;37.00;22.57;;;;;;;7.11;81.02;101460.88;5050543;28;20186;-73
2022/03/29 03:33:22;;;;;;;38.57;22.17;;;;;;;7.11;80.30;101454.91;5036070;28;20668;-71
2022/03/29 03:35:47;;;;;;;37.23;22.90;;;;;;;7.07;80.42;101453.00;5032599;28;20217;-73
2022/03/29 03:38:12;;;;;;;36.70;22.43;;;;;;;7.04;81.10;101452.91;5032472;28;20190;-71
2022/03/29 03:40:38;;;;;;;40.00;23.57;;;;;;;6.98;81.28;101450.06;5041350;28;20214;-72
2022/03/29 03:43:03;;;;;;;36.17;24.20;;;;;;;6.94;81.50;101461.81;5052347;28;20198;-73
2022/03/29 03:45:29;;;;;;;37.93;22.67;;;;;;;6.88;81.99;101453.91;5041303;28;20202;-72
2022/03/29 03:47:55;;;;;;;34.83;22.77;;;;;;;6.82;81.56;101455.31;5042631;28;20193;-72
2022/03/29 03:50:20;;;;;;;43.57;21.77;;;;;;;6.78;81.66;101449.19;5051442;28;20192;-72
2022/03/29 03:52:45;;;;;;;36.00;22.17;;;;;;;6.75;81.96;101448.19;5052557;28;20181;-72
2022/03/29 03:55:11;;;;;;;38.63;23.93;;;;;;;6.69;82.02;101442.84;5048235;28;20182;-71
2022/03/29 03:57:36;;;;;;;35.60;22.07;;;;;;;6.63;82.43;101447.69;5032272;28;21041;-72
2022/03/29 04:00:03;;;;;;;33.03;21.47;;;;;;;6.62;82.15;101448.47;5041369;28;20564;-71
2022/03/29 04:02:37;;;;;;;35.00;22.37;;;;;;;6.56;82.73;101449.06;5051059;28;20647;-72
2022/03/29 04:05:03;;;;;;;41.47;22.57;;;;;;;6.53;82.36;101448.03;5049977;28;20196;-72
2022/03/29 04:07:28;;;;;;;39.13;21.93;;;;;;;6.51;82.43;101440.38;5032376;28;20208;-72
2022/03/29 04:09:54;;;;;;;38.37;21.30;;;;;;;6.42;82.10;101442.50;5034414;28;20190;-71
2022/03/29 04:12:20;;;;;;;27.43;16.90;;;;;;;6.34;81.56;101445.47;5045642;28;20267;-72
2022/03/29 04:14:45;;;;;;;27.73;13.97;;;;;;;6.27;80.46;101453.63;5031737;28;20206;-72
2022/03/29 04:17:11;;;;;;;22.10;12.53;;;;;;;6.21;80.09;101448.28;5044326;28;20209;-72
2022/03/29 04:19:37;;;;;;;26.27;11.43;;;;;;;6.13;79.66;101452.13;5050395;28;20190;-72
2022/03/29 04:22:03;;;;;;;19.43;10.87;;;;;;;6.07;79.65;101440.00;5045122;28;20189;-72
2022/03/29 04:24:28;;;;;;;21.30;10.20;;;;;;;6.00;79.36;101440.53;5050236;28;20182;-72
2022/03/29 04:26:54;;;;;;;18.30;10.43;;;;;;;5.97;79.56;101444.56;5051493;28;20301;-72
2022/03/29 04:29:19;;;;;;;22.00;10.43;;;;;;;5.89;79.56;101444.22;5051631;28;20194;-73
2022/03/29 04:31:44;;;;;;;24.07;10.40;;;;;;;5.82;80.41;101432.03;5051496;28;20181;-73
2022/03/29 04:34:10;;;;;;;18.17;9.30;;;;;;;5.78;79.84;101425.03;5051552;28;20283;-72
2022/03/29 04:36:36;;;;;;;20.07;10.00;;;;;;;5.79;79.76;101434.38;5050065;28;20217;-72
2022/03/29 04:39:01;;;;;;;20.03;9.67;;;;;;;5.73;79.59;101433.22;5051301;28;20205;-72
2022/03/29 04:41:26;;;;;;;21.37;8.80;;;;;;;5.70;80.54;101427.97;5051126;28;20190;-72
2022/03/29 04:43:52;;;;;;;22.80;10.83;;;;;;;5.66;79.70;101433.75;5051282;28;20194;-72
2022/03/29 04:46:17;;;;;;;24.27;9.17;;;;;;;5.63;80.01;101437.00;5051336;28;20213;-74
2022/03/29 04:48:43;;;;;;;22.10;8.77;;;;;;;5.55;80.63;101433.22;5056769;28;20612;-72
2022/03/29 04:51:08;;;;;;;19.50;8.83;;;;;;;5.47;80.68;101428.53;5051031;28;20193;-72
2022/03/29 04:53:34;;;;;;;20.60;8.77;;;;;;;5.43;81.06;101429.22;5049666;28;20213;-73
2022/03/29 04:55:59;;;;;;;21.50;9.17;;;;;;;5.39;81.21;101425.63;5045183;28;20295;-72
2022/03/29 04:58:25;;;;;;;23.67;9.03;;;;;;;5.34;81.45;101429.63;5043372;28;20189;-72
2022/03/29 05:00:51;;;;;;;17.17;7.90;;;;;;;5.31;81.35;101426.06;5050978;28;20240;-72
2022/03/29 05:03:16;;;;;;;23.80;7.90;;;;;;;5.28;81.51;101425.91;5051135;28;20542;-72
2022/03/29 05:05:42;;;;;;;22.30;7.50;;;;;;;5.25;81.82;101421.53;5050972;28;20259;-72
2022/03/29 05:08:08;;;;;;;21.23;6.97;;;;;;;5.22;82.20;101429.03;5051026;28;20178;-71
2022/03/29 05:10:33;;;;;;;18.07;6.00;;;;;;;5.20;82.46;101428.06;5050843;28;20198;-72
2022/03/29 05:12:58;;;;;;;24.00;6.77;;;;;;;5.17;82.29;101432.13;5050599;28;20567;-71
2022/03/29 05:15:23;;;;;;;22.13;5.60;;;;;;;5.15;81.86;101441.34;5050725;28;20663;-72
2022/03/29 05:17:49;;;;;;;21.70;6.00;;;;;;;5.15;81.99;101437.13;5049096;28;20561;-73
2022/03/29 05:20:16;;;;;;;21.50;5.90;;;;;;;5.16;82.46;101435.47;5029387;28;21017;-72
2022/03/29 05:22:46;;;;;;;30.10;6.40;;;;;;;5.12;82.17;101443.72;5041888;28;20713;-73
2022/03/29 05:25:16;;;;;;;26.10;5.83;;;;;;;5.12;82.55;101433.56;5049741;28;20643;-72
2022/03/29 05:27:42;;;;;;;30.80;5.60;;;;;;;5.10;82.03;101436.00;5030467;28;20333;-71
2022/03/29 05:30:09;;;;;;;24.77;5.73;;;;;;;5.08;82.34;101435.09;5030288;28;20214;-72
2022/03/29 05:32:34;;;;;;;23.83;5.50;;;;;;;5.07;82.55;101435.84;5044595;28;20660;-71
2022/03/29 05:34:59;;;;;;;28.80;4.80;;;;;;;5.11;81.87;101434.38;5048304;28;20407;-72
2022/03/29 05:37:25;;;;;;;22.63;5.07;;;;;;;5.13;81.54;101438.72;5050350;28;20599;-72
2022/03/29 05:39:50;;;;;;;27.67;5.13;;;;;;;5.15;82.00;101438.81;5050191;28;20182;-72
2022/03/29 05:42:16;;;;;;;28.50;5.33;;;;;;;5.18;82.10;101438.94;5049850;28;20232;-72
2022/03/29 05:44:43;;;;;;;24.00;5.20;;;;;;;5.19;82.18;101426.31;5050216;28;20189;-72
2022/03/29 05:49:52;;;;;;;27.07;5.23;;;;;;;5.25;81.59;101423.22;5030056;28;20217;-72
2022/03/29 05:52:21;;;;;;;24.73;4.67;;;;;;;5.35;80.79;101420.34;5030079;28;20171;-71
2022/03/29 05:54:47;;;;;;;21.43;4.57;;;;;;;5.35;81.03;101422.88;5030033;28;20222;-72
2022/03/29 05:57:16;;;;;;;24.40;4.87;;;;;;;5.39;80.57;101432.41;5030025;28;20262;-73
2022/03/29 05:59:43;;;;;;;28.10;4.50;;;;;;;5.39;80.65;101434.94;5030116;28;20580;-72
2022/03/29 06:02:08;;;;;;;24.33;5.37;;;;;;;5.43;80.12;101436.84;5028534;28;20206;-72
2022/03/29 06:04:35;;;;;;;23.23;4.47;;;;;;;5.49;80.27;101435.47;5030052;28;20174;-71
2022/03/29 06:07:01;;;;;;;24.03;4.40;;;;;;;5.51;79.40;101440.59;5028629;28;20214;-72
2022/03/29 06:09:27;;;;;;;27.53;5.50;;;;;;;5.56;79.59;101432.41;5030005;28;20220;-72
2022/03/29 06:11:53;;;;;;;26.30;5.30;;;;;;;5.68;79.14;101437.22;5029465;28;20264;-72
2022/03/29 06:14:18;;;;;;;18.37;4.60;;;;;;;5.71;78.74;101440.75;5032311;28;20295;-72
2022/03/29 06:16:44;;;;;;;24.70;5.17;;;;;;;5.78;78.69;101441.94;5029484;28;20214;-73
2022/03/29 06:19:09;;;;;;;20.70;3.97;;;;;;;5.86;78.04;101436.47;5040631;28;20183;-73
2022/03/29 06:21:37;;;;;;;22.70;5.03;;;;;;;5.97;77.62;101432.75;5037774;28;20280;-74
2022/03/29 06:24:04;;;;;;;23.33;4.20;;;;;;;5.97;77.54;101431.88;5029647;28;20205;-72
2022/03/29 06:26:30;;;;;;;21.60;3.70;;;;;;;6.11;76.73;101436.81;5034408;28;20262;-72
2022/03/29 06:28:56;;;;;;;17.57;4.13;;;;;;;6.21;76.19;101427.94;5045084;28;20269;-73
2022/03/29 06:31:21;;;;;;;22.60;4.67;;;;;;;6.18;76.48;101436.28;5045668;28;20696;-73
2022/03/29 06:33:47;;;;;;;28.80;4.60;;;;;;;6.13;75.40;101435.19;5036273;28;20217;-72
2022/03/29 06:36:12;;;;;;;22.77;3.93;;;;;;;6.31;75.50;101437.72;5037638;28;20222;-72
2022/03/29 06:38:37;;;;;;;14.93;3.67;;;;;;;6.49;75.24;101436.03;5029224;28;20205;-73
2022/03/29 06:41:03;;;;;;;20.63;4.13;;;;;;;6.65;74.75;101436.75;5046719;28;20639;-72
2022/03/29 06:43:28;;;;;;;24.33;4.50;;;;;;;6.76;73.72;101429.56;5056884;28;20532;-73
2022/03/29 06:45:54;;;;;;;20.93;4.13;;;;;;;6.79;73.77;101424.63;5070830;28;20559;-72
2022/03/29 06:48:20;;;;;;;21.17;4.17;;;;;;;6.94;72.70;101427.84;5047709;28;20285;-72
2022/03/29 06:50:45;;;;;;;25.63;3.77;;;;;;;7.11;72.70;101421.78;5034862;28;20255;-72
2022/03/29 06:53:10;;;;;;;19.20;3.80;;;;;;;7.19;71.97;101425.53;5045395;28;20206;-72
2022/03/29 06:55:36;;;;;;;18.30;4.43;;;;;;;7.25;71.41;101433.44;5032698;28;20724;-72
2022/03/29 06:58:03;;;;;;;19.73;4.13;;;;;;;7.38;69.95;101433.13;5032754;28;20331;-72
2022/03/29 07:00:28;;;;;;;18.43;4.10;;;;;;;7.59;69.31;101418.69;5032453;28;20193;-72
2022/03/29 07:02:54;;;;;;;25.50;4.00;;;;;;;7.47;68.84;101421.63;5031337;28;20535;-73
2022/03/29 07:05:19;;;;;;;19.40;4.33;;;;;;;7.65;69.39;101413.88;5031596;28;20186;-72
2022/03/29 07:07:45;;;;;;;20.70;3.60;;;;;;;7.63;68.31;101411.25;5032448;28;20201;-72
2022/03/29 07:13:01;;;;;;;19.03;4.00;;;;;;;7.80;67.50;101406.81;5015351;28;20778;-72
2022/03/29 07:15:27;;;;;;;14.37;2.97;;;;;;;7.94;67.23;101414.22;5052581;28;20193;-72
2022/03/29 07:17:53;;;;;;;19.63;3.37;;;;;;;8.31;65.07;101412.28;5037790;28;20294;-73
2022/03/29 07:20:20;;;;;;;14.67;4.23;;;;;;;8.05;66.20;101417.16;5052036;28;20186;-73
2022/03/29 07:22:47;;;;;;;18.90;4.53;;;;;;;8.40;65.22;101409.19;5052293;28;20182;-73
2022/03/29 07:25:13;;;;;;;11.90;2.87;;;;;;;8.44;64.37;101421.25;5048705;28;20189;-72
2022/03/29 07:27:38;;;;;;;18.23;3.27;;;;;;;8.67;63.72;101407.66;5046904;28;20209;-72
2022/03/29 07:30:05;;;;;;;18.63;3.47;;;;;;;8.64;64.17;101400.75;5032162;28;20252;-71
2022/03/29 07:32:31;;;;;;;15.47;3.70;;;;;;;8.79;63.86;101401.28;5032302;28;20189;-72
2022/03/29 07:34:57;;;;;;;14.43;3.43;;;;;;;8.43;65.14;101399.97;5032200;28;20217;-73
2022/03/29 07:37:22;;;;;;;11.97;3.20;;;;;;;8.58;63.95;101400.53;5042530;28;20263;-73
2022/03/29 07:39:53;;;;;;;19.97;4.33;;;;;;;8.60;64.30;101401.44;5047341;28;20197;-74
2022/03/29 07:42:19;;;;;;;20.23;4.70;;;;;;;8.47;64.96;101400.97;5052040;28;20198;-72
2022/03/29 07:44:45;;;;;;;14.37;3.70;;;;;;;8.17;64.23;101400.66;5052104;28;20166;-72
2022/03/29 07:47:10;;;;;;;17.40;3.67;;;;;;;8.00;64.34;101409.34;5051883;28;20213;-74
2022/03/29 07:49:36;;;;;;;15.27;3.23;;;;;;;8.35;62.95;101401.38;5051852;28;20193;-73
2022/03/29 07:52:02;;;;;;;19.67;3.73;;;;;;;8.74;61.46;101394.28;5050275;28;20201;-72
2022/03/29 07:54:28;;;;;;;15.33;3.00;;;;;;;9.14;62.24;101405.06;5050486;28;20223;-73
2022/03/29 07:56:53;;;;;;;14.83;3.27;;;;;;;8.99;60.07;101392.63;5049587;28;20213;-73
2022/03/29 07:59:18;;;;;;;18.40;4.27;;;;;;;9.42;60.90;101389.81;5050248;28;20256;-73
2022/03/29 08:01:44;;;;;;;11.83;3.00;;;;;;;9.13;59.62;101401.63;5051470;28;20656;-74
2022/03/29 08:04:09;;;;;;;11.97;3.07;;;;;;;9.05;59.70;101397.97;5050172;28;20216;-72
2022/03/29 08:06:35;;;;;;;12.83;3.23;;;;;;;9.42;59.69;101395.81;5051520;28;20571;-73
2022/03/29 08:09:00;;;;;;;14.77;2.93;;;;;;;9.83;57.71;101392.00;5047672;28;20273;-73
2022/03/29 08:11:25;;;;;;;14.90;3.33;;;;;;;9.62;58.21;101391.31;5065123;28;20196;-72
2022/03/29 08:13:51;;;;;;;12.80;2.93;;;;;;;9.60;57.19;101385.31;5070833;28;20213;-72
2022/03/29 08:16:16;;;;;;;17.63;3.63;;;;;;;9.09;58.52;101392.16;5069499;28;20230;-71
2022/03/29 08:18:42;;;;;;;11.40;2.60;;;;;;;9.43;58.16;101384.75;5046055;28;20279;-72
2022/03/29 08:23:53;;;;;;;12.93;2.83;;;;;;;10.37;55.26;101381.75;5031215;28;20283;-72
2022/03/29 08:26:18;;;;;;;15.77;2.83;;;;;;;10.49;56.13;101379.53;5044876;28;20736;-72
2022/03/29 08:28:43;;;;;;;15.17;3.53;;;;;;;10.65;56.06;101373.16;5051044;28;20207;-74
2022/03/29 08:31:09;;;;;;;12.37;3.10;;;;;;;9.73;57.06;101387.44;5049511;28;20247;-73
2022/03/29 08:33:34;;;;;;;16.33;2.93;;;;;;;9.91;55.99;101375.22;5050793;28;20208;-72
2022/03/29 08:35:59;;;;;;;12.60;2.33;;;;;;;10.58;53.69;101369.56;5050902;28;20577;-72
2022/03/29 08:38:26;;;;;;;11.77;2.27;;;;;;;10.85;52.81;101362.63;5043902;28;20569;-72
2022/03/29 08:40:57;;;;;;;13.97;3.13;;;;;;;11.15;51.64;101357.44;5037439;28;20194;-71
2022/03/29 08:43:26;;;;;;;11.43;2.80;;;;;;;11.29;51.38;101358.63;5029486;28;20194;-72
2022/03/29 08:45:51;;;;;;;12.57;2.80;;;;;;;11.19;50.88;101344.72;5031000;28;20218;-73
2022/03/29 08:48:19;;;;;;;14.27;2.97;;;;;;;11.19;50.79;101344.72;5030909;28;20190;-70
2022/03/29 08:50:46;;;;;;;12.97;3.20;;;;;;;11.30;52.32;101345.81;5029226;28;20190;-73
2022/03/29 08:53:12;;;;;;;15.03;3.67;;;;;;;11.32;51.74;101348.44;5030705;28;20206;-70
2022/03/29 08:55:42;;;;;;;12.17;2.83;;;;;;;11.24;51.67;101347.41;5030656;28;20711;-73
2022/03/29 08:58:08;;;;;;;11.73;2.30;;;;;;;11.29;50.03;101345.81;5030412;28;20538;-72
2022/03/29 09:00:35;;;;;;;12.77;2.90;;;;;;;11.44;49.85;101343.63;5012400;28;20209;-73
2022/03/29 09:03:00;;;;;;;10.93;2.50;;;;;;;11.70;49.39;101330.59;5030456;28;20575;-72
2022/03/29 09:05:32;;;;;;;9.77;2.60;;;;;;;11.96;48.57;101337.16;5030306;28;20184;-73
2022/03/29 09:08:00;;;;;;;13.47;3.30;;;;;;;12.23;47.09;101329.16;5028951;28;20186;-73
2022/03/29 09:10:44;;;;;;;8.90;3.30;;;;;;;12.65;47.38;101319.72;5051001;28;20280;-74
2022/03/29 09:13:27;;;;;;;9.90;2.80;;;;;;;12.66;47.91;101326.59;5048892;28;20313;-72
2022/03/29 09:15:55;;;;;;;11.97;3.03;;;;;;;12.90;47.34;101327.91;5049987;28;20205;-74
2022/03/29 09:18:21;;;;;;;15.53;2.83;;;;;;;13.01;46.63;101323.00;5030100;28;21025;-70
2022/03/29 09:21:04;;;;;;;16.03;3.40;;;;;;;12.70;47.58;101325.81;5056882;28;20186;-70
2022/03/29 09:23:30;;;;;;;9.43;2.90;;;;;;;13.24;45.98;101323.38;5049015;28;20193;-72
2022/03/29 09:25:55;;;;;;;10.30;2.67;;;;;;;13.42;44.30;101332.25;5039383;28;20217;-72
2022/03/29 09:28:21;;;;;;;8.80;2.87;;;;;;;13.12;43.26;101324.03;5029979;28;20202;-73
2022/03/29 09:30:48;;;;;;;8.87;2.83;;;;;;;13.55;44.00;101320.44;5029825;28;20197;-73
2022/03/29 09:33:16;;;;;;;7.60;2.93;;;;;;;14.31;42.89;101321.50;5028437;28;20202;-74
2022/03/29 09:35:57;;;;;;;9.03;2.97;;;;;;;15.74;39.11;101307.38;5029857;28;20647;-74
2022/03/29 09:38:41;;;;;;;6.75;2.88;;;;;;;21.02;30.52;101290.19;5028393;28;20182;-75
2022/03/29 09:41:21;;;;;;;8.65;2.50;;;;;;;22.52;28.73;101285.59;5044305;28;20178;-73
2022/03/29 09:44:07;;;;;;;7.47;2.70;;;;;;;22.56;28.07;101285.47;5029758;28;20233;-73
2022/03/29 09:46:51;;;;;;;10.05;2.83;;;;;;;23.54;26.59;101280.47;5029749;28;20237;-74
2022/03/29 09:49:17;;;;;;;8.63;2.88;;;;;;;24.53;25.15;101275.84;5028115;28;20563;-74
2022/03/29 09:51:42;;;;;;;8.85;3.17;;;;;;;21.70;28.02;101292.44;5029495;28;20201;-74
2022/03/29 09:54:08;;;;;;;10.13;3.25;;;;;;;22.33;27.01;101282.47;5029726;28;20300;-72
2022/03/29 09:56:33;;;;;;;9.20;3.00;;;;;;;22.85;26.66;101279.59;5029666;28;20241;-73
2022/03/29 09:59:14;;;;;;;11.63;2.75;;;;;;;23.04;26.66;101271.28;5028276;28;20182;-73
2022/03/29 10:01:47;;;;;;;9.88;2.60;;;;;;;23.44;25.63;101269.38;5029252;28;20183;-73
2022/03/29 10:04:15;;;;;;;8.65;2.85;;;;;;;25.27;23.88;101252.53;5029467;28;20178;-73
2022/03/29 10:06:42;;;;;;;7.82;2.90;;;;;;;24.18;23.70;101254.25;5029269;28;20634;-74
2022/03/29 10:09:27;;;;;;;6.22;2.42;;;;;;;23.89;24.44;101260.28;5029103;28;20198;-74
2022/03/29 10:12:06;;;;;;;8.02;2.90;;;;;;;27.07;21.90;101250.84;5052351;28;20193;-73
2022/03/29 10:14:34;;;;;;;8.93;2.53;;;;;;;25.39;23.45;101254.69;5065108;28;20239;-73
2022/03/29 10:17:00;;;;;;;7.97;2.58;;;;;;;26.73;22.20;101246.13;5042137;28;20237;-74
2022/03/29 10:19:25;;;;;;;7.43;2.60;;;;;;;25.89;21.78;101246.75;5047561;28;20578;-74
2022/03/29 10:21:53;;;;;;;8.33;2.40;;;;;;;23.99;23.38;101246.06;5047547;28;20227;-74
2022/03/29 10:24:19;;;;;;;6.70;2.33;;;;;;;25.03;22.69;101248.03;5049123;28;20651;-74
2022/03/29 10:26:48;;;;;;;9.10;2.63;;;;;;;24.96;23.58;101249.16;5049039;28;20260;-73
2022/03/29 10:29:14;;;;;;;7.57;2.43;;;;;;;24.04;24.52;101248.56;5049316;28;20281;-73
2022/03/29 10:32:05;;;;;;;10.67;2.40;;;;;;;21.83;27.00;101248.78;5048475;28;20514;-73
2022/03/29 10:34:39;;;;;;;6.43;2.37;;;;;;;20.42;29.19;101253.75;5047679;28;20213;-74
2022/03/29 10:37:14;;;;;;;7.30;2.70;;;;;;;19.72;31.68;101258.94;5049011;28;20200;-74
2022/03/29 10:39:47;;;;;;;8.10;2.23;;;;;;;18.15;32.55;101267.94;5048262;28;20288;-74
2022/03/29 10:42:36;;;;;;;7.57;2.50;;;;;;;17.68;34.66;101254.28;5049211;28;20198;-75
2022/03/29 10:45:22;;;;;;;10.80;2.43;;;;;;;16.92;34.07;101257.78;5047661;28;20816;-74
2022/03/29 10:47:54;;;;;;;6.47;2.13;;;;;;;16.59;36.01;101261.22;5048703;28;20219;-74
2022/03/29 10:50:20;;;;;;;9.80;2.40;;;;;;;16.46;35.89;101256.00;5048864;28;20189;-74
2022/03/29 10:52:47;;;;;;;8.87;2.33;;;;;;;17.02;34.74;101249.16;5048872;28;20784;-74
2022/03/29 10:55:17;;;;;;;7.03;2.40;;;;;;;17.12;34.69;101246.56;5048901;28;20325;-75
2022/03/29 10:58:04;;;;;;;7.03;2.20;;;;;;;17.56;34.20;101246.53;5047541;28;20296;-73
2022/03/29 11:00:33;;;;;;;9.97;2.43;;;;;;;17.57;34.93;101243.06;5047278;28;20243;-74
2022/03/29 11:03:21;;;;;;;5.60;1.90;;;;;;;15.83;35.51;101243.72;5047959;28;20216;-76
2022/03/29 11:06:11;;;;;;;6.27;2.53;;;;;;;16.35;36.71;101239.59;5069339;28;20274;-73
2022/03/29 11:08:38;;;;;;;10.20;2.53;;;;;;;17.09;35.84;101232.78;5052192;28;20674;-72
2022/03/29 11:11:05;;;;;;;8.67;2.63;;;;;;;16.79;35.27;101230.19;5048873;28;20658;-74
2022/03/29 11:13:34;;;;;;;8.73;2.63;;;;;;;16.73;36.35;101225.91;5047541;28;20213;-73
2022/03/29 11:16:19;;;;;;;8.13;2.23;;;;;;;17.56;34.86;101218.94;5048938;28;20213;-73
2022/03/29 11:18:45;;;;;;;5.10;2.50;;;;;;;17.18;35.10;101218.09;5049013;28;20271;-72
2022/03/29 11:21:28;;;;;;;10.77;2.60;;;;;;;17.08;34.94;101213.78;5048973;28;20639;-74
2022/03/29 11:23:58;;;;;;;9.53;2.40;;;;;;;16.44;36.05;101209.47;5049132;28;20188;-73
2022/03/29 11:26:24;;;;;;;6.67;2.40;;;;;;;16.42;36.24;101207.75;5048892;28;20201;-73
2022/03/29 11:28:51;;;;;;;7.40;2.23;;;;;;;16.87;34.73;101200.91;5049053;28;20635;-73
2022/03/29 11:31:18;;;;;;;8.57;2.60;;;;;;;16.08;36.41;101203.34;5048490;28;20217;-73
2022/03/29 11:33:49;;;;;;;7.40;2.37;;;;;;;16.57;36.97;101197.44;5051923;28;20220;-74